Time;durP1;ratioP1;P1;durP2;ratioP2;P2;SDS_P1;SDS_P2;PMS_P1;PMS_P2;Temp;Humidity;BMP_temperature;BMP_pressure;BME280_temperature;BME280_humidity;BME280_pressure;Samples;Min_cycle;Max_cycle;Signal;HPM_P1;HPM_P2
2022/10/29 00:01:03;;;;;;;31.15;11.15;;;19.60;99.90;;;;;;5012065;28;20445;-72
2022/10/29 00:03:30;;;;;;;35.38;10.82;;;19.60;99.90;;;;;;5012109;28;20160;-74
2022/10/29 00:06:04;;;;;;;30.58;11.18;;;19.60;99.90;;;;;;4993960;28;20121;-72
2022/10/29 00:08:33;;;;;;;30.67;11.63;;;19.60;99.90;;;;;;5012101;28;20354;-74
2022/10/29 00:11:13;;;;;;;34.65;11.60;;;19.50;99.90;;;;;;5011888;28;20033;-73
2022/10/29 00:13:40;;;;;;;34.17;11.40;;;19.50;99.90;;;;;;5011475;28;20042;-74
2022/10/29 00:16:19;;;;;;;37.38;12.57;;;19.50;99.90;;;;;;5011781;28;20100;-74
2022/10/29 00:18:49;;;;;;;35.22;11.95;;;19.50;99.90;;;;;;5012063;28;20442;-73
2022/10/29 00:21:19;;;;;;;34.65;11.40;;;19.50;99.90;;;;;;5011947;28;20059;-74
2022/10/29 00:23:47;;;;;;;36.13;12.48;;;19.50;99.90;;;;;;5011776;28;20080;-74
2022/10/29 00:26:13;;;;;;;39.00;12.48;;;19.40;99.90;;;;;;5011959;28;20113;-70
2022/10/29 00:28:39;;;;;;;;;;;19.40;99.90;;;;;;5031645;28;20564;-73
2022/10/29 00:31:09;;;;;;;31.85;11.35;;;19.40;99.90;;;;;;5031347;28;20031;-73
2022/10/29 00:33:39;;;;;;;27.52;10.95;;;19.40;99.90;;;;;;5031198;28;20026;-74
2022/10/29 00:36:13;;;;;;;34.45;11.70;;;19.50;99.90;;;;;;5013363;28;20025;-74
2022/10/29 00:38:40;;;;;;;39.85;11.23;;;19.50;99.90;;;;;;5031585;28;20057;-74
2022/10/29 00:41:09;;;;;;;30.75;11.50;;;19.50;99.90;;;;;;5031386;28;20021;-73
2022/10/29 00:43:38;;;;;;;36.80;11.15;;;19.50;99.90;;;;;;5013852;28;20109;-73
2022/10/29 00:46:08;;;;;;;35.05;10.82;;;19.40;99.90;;;;;;5030665;28;20108;-74
2022/10/29 00:48:41;;;;;;;34.53;11.98;;;19.40;99.90;;;;;;5031244;28;20025;-73
2022/10/29 00:51:11;;;;;;;34.03;11.88;;;19.30;99.90;;;;;;5029897;28;20092;-73
2022/10/29 00:53:42;;;;;;;29.42;11.88;;;19.30;99.90;;;;;;5012233;28;20046;-74
2022/10/29 00:56:11;;;;;;;32.25;11.13;;;19.30;99.90;;;;;;5011420;28;20041;-74
2022/10/29 00:58:39;;;;;;;34.45;12.15;;;19.20;99.90;;;;;;5011577;28;20105;-72
2022/10/29 01:01:06;;;;;;;40.72;11.82;;;19.20;99.90;;;;;;4993883;28;20588;-72
2022/10/29 01:03:32;;;;;;;35.65;11.50;;;19.20;99.90;;;;;;5011174;28;20066;-73
2022/10/29 01:06:02;;;;;;;36.65;12.45;;;19.20;99.90;;;;;;5011126;28;20084;-72
2022/10/29 01:08:29;;;;;;;36.50;12.52;;;19.20;99.90;;;;;;5011238;28;20033;-69
2022/10/29 01:11:01;;;;;;;36.67;11.95;;;19.10;99.90;;;;;;5011377;28;20095;-72
2022/10/29 01:13:53;;;;;;;33.83;10.85;;;19.10;99.90;;;;;;5011072;28;20354;-74
2022/10/29 01:16:47;;;;;;;28.55;10.60;;;19.20;99.90;;;;;;5002872;28;20041;-72
2022/10/29 01:19:37;;;;;;;39.80;11.38;;;19.20;99.90;;;;;;5031197;28;20029;-72
2022/10/29 01:22:15;;;;;;;31.83;10.45;;;19.20;99.90;;;;;;5031134;28;20029;-73
2022/10/29 01:25:16;;;;;;;34.03;11.00;;;19.20;99.90;;;;;;5031173;28;20037;-73
2022/10/29 01:28:01;;;;;;;33.42;11.85;;;19.10;99.90;;;;;;5012869;28;20025;-74
2022/10/29 01:30:51;;;;;;;35.42;10.73;;;19.20;99.90;;;;;;5030899;28;20356;-74
2022/10/29 01:33:47;;;;;;;28.83;11.32;;;19.20;99.90;;;;;;5031062;28;20026;-73
2022/10/29 01:36:33;;;;;;;35.88;11.93;;;19.20;99.90;;;;;;5013449;28;20033;-74
2022/10/29 01:39:05;;;;;;;31.25;10.20;;;19.20;99.90;;;;;;5027263;28;20430;-73
2022/10/29 01:41:48;;;;;;;28.45;10.27;;;19.10;99.90;;;;;;5030869;28;20487;-74
2022/10/29 01:44:14;;;;;;;33.40;11.27;;;19.10;99.90;;;;;;5031113;28;20026;-73
2022/10/29 01:46:48;;;;;;;30.85;9.70;;;19.10;99.90;;;;;;5012765;28;20038;-72
2022/10/29 01:49:24;;;;;;;29.10;10.45;;;19.10;99.90;;;;;;5030914;28;20456;-74
2022/10/29 01:51:53;;;;;;;32.53;10.32;;;19.20;99.90;;;;;;5030507;28;20040;-71
2022/10/29 01:54:20;;;;;;;25.63;10.18;;;19.10;99.90;;;;;;4991318;28;20042;-73
2022/10/29 01:57:25;;;;;;;27.40;10.57;;;19.10;99.90;;;;;;4991611;28;20026;-74
2022/10/29 01:59:54;;;;;;;34.72;10.73;;;19.10;99.90;;;;;;4991624;28;20065;-74
2022/10/29 02:02:42;;;;;;;36.10;10.02;;;19.00;99.90;;;;;;4993548;28;20030;-73
2022/10/29 02:05:11;;;;;;;25.30;8.90;;;19.10;99.90;;;;;;4995186;28;20375;-73
2022/10/29 02:07:53;;;;;;;33.25;10.77;;;19.10;99.90;;;;;;4976839;28;20061;-73
2022/10/29 02:10:35;;;;;;;34.15;11.25;;;19.00;99.90;;;;;;4994200;28;20037;-74
2022/10/29 02:13:01;;;;;;;29.55;10.57;;;18.90;99.90;;;;;;4995015;28;20422;-73
2022/10/29 02:15:36;;;;;;;28.00;10.50;;;18.80;99.90;;;;;;4994712;28;20054;-74
2022/10/29 02:18:05;;;;;;;30.10;10.43;;;18.80;99.90;;;;;;4994409;28;20030;-73
2022/10/29 02:20:31;;;;;;;35.25;10.85;;;18.80;99.90;;;;;;4994646;28;20025;-74
2022/10/29 02:22:59;;;;;;;29.63;10.32;;;18.80;99.90;;;;;;4994611;28;20112;-73
2022/10/29 02:25:32;;;;;;;29.48;10.02;;;18.80;99.90;;;;;;4994464;28;20094;-74
2022/10/29 02:27:58;;;;;;;32.85;10.40;;;18.90;99.90;;;;;;4994597;28;20034;-74
2022/10/29 02:30:25;;;;;;;33.80;9.80;;;18.80;99.90;;;;;;4992640;28;20030;-73
2022/10/29 02:32:53;;;;;;;23.35;9.25;;;18.80;99.90;;;;;;4994453;28;20029;-73
2022/10/29 02:35:19;;;;;;;40.58;10.40;;;18.90;99.90;;;;;;4994130;28;20493;-73
2022/10/29 02:37:45;;;;;;;31.83;10.00;;;18.80;99.90;;;;;;4994103;28;20027;-74
2022/10/29 02:40:13;;;;;;;36.03;10.98;;;18.80;99.90;;;;;;4994107;28;20109;-74
2022/10/29 02:42:39;;;;;;;30.45;10.93;;;18.80;99.90;;;;;;4994324;28;20049;-73
2022/10/29 02:45:06;;;;;;;27.77;10.20;;;18.80;99.90;;;;;;4994118;28;20030;-73
2022/10/29 02:47:32;;;;;;;27.20;9.95;;;18.80;99.90;;;;;;4993962;28;20049;-72
2022/10/29 02:49:58;;;;;;;28.48;9.85;;;18.80;99.90;;;;;;4994114;28;20054;-73
2022/10/29 02:52:26;;;;;;;33.70;11.20;;;18.80;99.90;;;;;;4993372;28;20445;-74
2022/10/29 02:54:52;;;;;;;35.65;10.90;;;18.80;99.90;;;;;;4993687;28;20030;-73
2022/10/29 02:57:19;;;;;;;29.42;11.10;;;18.70;99.90;;;;;;4994264;28;20354;-73
2022/10/29 02:59:47;;;;;;;31.15;11.52;;;18.70;99.90;;;;;;4993559;28;20030;-73
2022/10/29 03:02:14;;;;;;;29.27;11.57;;;18.60;99.90;;;;;;4960297;28;20030;-72
2022/10/29 03:04:40;;;;;;;33.17;11.50;;;18.60;99.90;;;;;;5011466;28;20030;-73
2022/10/29 03:07:06;;;;;;;30.67;11.65;;;18.50;99.90;;;;;;5013059;28;20024;-72
2022/10/29 03:09:34;;;;;;;27.23;10.82;;;18.40;99.90;;;;;;5012891;28;20036;-73
2022/10/29 03:12:00;;;;;;;38.97;11.38;;;18.40;99.90;;;;;;4995904;28;20048;-73
2022/10/29 03:14:28;;;;;;;34.60;11.07;;;18.40;99.90;;;;;;5012748;28;20493;-73
2022/10/29 03:16:54;;;;;;;37.35;11.98;;;18.40;99.90;;;;;;5013628;28;20112;-73
2022/10/29 03:19:21;;;;;;;35.72;10.23;;;18.30;99.90;;;;;;4995991;28;20402;-72
2022/10/29 03:21:48;;;;;;;34.92;10.95;;;18.30;99.90;;;;;;5013082;28;20060;-72
2022/10/29 03:24:14;;;;;;;29.83;10.57;;;18.20;99.90;;;;;;5013290;28;20033;-73
2022/10/29 03:26:40;;;;;;;34.35;10.00;;;18.20;99.90;;;;;;4995697;28;20037;-72
2022/10/29 03:29:06;;;;;;;34.10;10.70;;;18.20;99.90;;;;;;5013307;28;20030;-72
2022/10/29 03:31:33;;;;;;;28.83;10.75;;;18.20;99.90;;;;;;5013202;28;20080;-72
2022/10/29 03:33:59;;;;;;;36.80;10.50;;;18.20;99.90;;;;;;5013510;28;20047;-73
2022/10/29 03:36:25;;;;;;;29.92;10.98;;;18.20;99.90;;;;;;5012944;28;20065;-72
2022/10/29 03:38:52;;;;;;;36.58;9.70;;;18.10;99.90;;;;;;5013008;28;20085;-73
2022/10/29 03:41:18;;;;;;;34.85;10.57;;;18.10;99.90;;;;;;5013513;28;20083;-72
2022/10/29 03:43:46;;;;;;;30.27;10.13;;;18.00;99.90;;;;;;5012838;28;20030;-72
2022/10/29 03:46:13;;;;;;;29.92;10.63;;;18.00;99.90;;;;;;5013505;28;20473;-72
2022/10/29 03:48:39;;;;;;;30.85;10.20;;;18.00;99.90;;;;;;5013061;28;20022;-72
2022/10/29 03:51:06;;;;;;;28.88;10.57;;;18.00;99.90;;;;;;5013269;28;20397;-73
2022/10/29 03:53:34;;;;;;;32.45;10.65;;;18.00;99.90;;;;;;5012556;28;20064;-73
2022/10/29 03:56:01;;;;;;;32.03;11.52;;;18.00;99.90;;;;;;5012715;28;20045;-72
2022/10/29 03:58:28;;;;;;;28.98;10.45;;;18.00;99.90;;;;;;5012766;28;20054;-73
2022/10/29 04:01:04;;;;;;;28.38;10.05;;;18.00;99.90;;;;;;5012615;28;20029;-71
2022/10/29 04:03:31;;;;;;;;;;;18.00;99.90;;;;;;5013222;28;20113;-73
2022/10/29 04:06:01;;;;;;;30.05;9.80;;;18.00;99.90;;;;;;5018535;28;19920;-72
2022/10/29 04:08:28;;;;;;;25.10;9.60;;;18.00;99.90;;;;;;5028353;28;20026;-71
2022/10/29 04:11:00;;;;;;;26.10;10.52;;;18.00;99.90;;;;;;5010158;28;20030;-70
2022/10/29 04:13:26;;;;;;;24.27;8.32;;;18.00;99.90;;;;;;4978660;28;20437;-73
2022/10/29 04:15:55;;;;;;;24.42;10.15;;;18.00;99.90;;;;;;5008076;28;20116;-73
2022/10/29 04:18:24;;;;;;;31.25;10.77;;;17.90;99.90;;;;;;5019517;28;20109;-72
2022/10/29 04:20:50;;;;;;;29.67;10.25;;;17.90;99.90;;;;;;5013746;28;20420;-71
2022/10/29 04:23:16;;;;;;;26.70;9.77;;;17.80;99.90;;;;;;5008639;28;20030;-73
2022/10/29 04:25:42;;;;;;;33.47;10.13;;;17.80;99.90;;;;;;4985851;28;20032;-73
2022/10/29 04:28:08;;;;;;;37.47;10.37;;;17.80;99.90;;;;;;5018142;28;20528;-72
2022/10/29 04:30:35;;;;;;;35.47;10.52;;;17.90;99.90;;;;;;5021486;28;20386;-72
2022/10/29 04:33:01;;;;;;;;;;;17.90;99.90;;;;;;5008479;28;20026;-73
2022/10/29 04:35:28;;;;;;;33.60;9.60;;;17.90;99.90;;;;;;5008154;28;19917;-72
2022/10/29 04:37:56;;;;;;;27.23;10.25;;;17.90;99.90;;;;;;5000949;28;20030;-73
2022/10/29 04:40:23;;;;;;;26.08;9.00;;;17.90;99.90;;;;;;4976192;28;20030;-73
2022/10/29 04:42:50;;;;;;;35.20;9.98;;;18.00;99.90;;;;;;4993661;28;20025;-76
2022/10/29 04:45:17;;;;;;;25.00;9.55;;;18.00;99.90;;;;;;4993725;28;20030;-72
2022/10/29 04:47:45;;;;;;;27.08;10.02;;;18.10;99.90;;;;;;4993465;28;20030;-71
2022/10/29 04:50:12;;;;;;;34.47;10.30;;;18.00;99.90;;;;;;4993486;28;20073;-71
2022/10/29 04:52:38;;;;;;;26.02;10.10;;;18.00;99.90;;;;;;4993294;28;20046;-72
2022/10/29 04:55:05;;;;;;;29.58;9.68;;;17.90;99.90;;;;;;4993846;28;20035;-72
2022/10/29 04:57:32;;;;;;;32.45;9.82;;;17.90;99.90;;;;;;4994050;28;20019;-71
2022/10/29 04:59:58;;;;;;;29.35;9.70;;;17.90;99.90;;;;;;5002468;28;20451;-72
2022/10/29 05:02:24;;;;;;;30.05;9.73;;;17.80;99.90;;;;;;5024305;28;20091;-70
2022/10/29 05:04:51;;;;;;;31.50;10.55;;;17.80;99.90;;;;;;5015381;28;20056;-79
2022/10/29 05:07:17;;;;;;;29.55;9.68;;;17.80;99.90;;;;;;5033013;28;20036;-78
2022/10/29 05:09:44;;;;;;;23.23;9.10;;;17.80;99.90;;;;;;5032808;28;20025;-78
2022/10/29 05:12:10;;;;;;;23.75;9.52;;;17.80;99.90;;;;;;5033145;28;20038;-77
2022/10/29 05:14:36;;;;;;;33.05;10.75;;;17.70;99.90;;;;;;5032900;28;20473;-78
2022/10/29 05:17:14;;;;;;;24.05;11.32;;;17.70;99.90;;;;;;5033281;28;20053;-78
2022/10/29 05:19:40;;;;;;;26.23;10.38;;;17.70;99.90;;;;;;5014939;28;20033;-76
2022/10/29 05:22:07;;;;;;;38.28;11.65;;;17.80;99.90;;;;;;5033174;28;20048;-79
2022/10/29 05:24:33;;;;;;;28.33;9.80;;;17.80;99.90;;;;;;5033240;28;20030;-79
2022/10/29 05:27:00;;;;;;;35.88;10.27;;;17.90;99.90;;;;;;5033267;28;20026;-79
2022/10/29 05:29:26;;;;;;;39.15;9.88;;;17.90;99.90;;;;;;5031904;28;20469;-72
2022/10/29 05:31:53;;;;;;;29.50;9.02;;;17.90;99.90;;;;;;5032082;28;20049;-83
2022/10/29 05:34:20;;;;;;;32.95;9.45;;;17.90;99.90;;;;;;5031911;28;20539;-83
2022/10/29 05:36:46;;;;;;;26.30;9.07;;;17.90;99.90;;;;;;5015196;28;20036;-83
2022/10/29 05:39:12;;;;;;;39.08;9.88;;;18.00;99.90;;;;;;5035916;28;20137;-82
2022/10/29 05:41:38;;;;;;;32.75;9.38;;;18.00;99.90;;;;;;5036647;28;20026;-82
2022/10/29 05:44:06;;;;;;;31.58;10.07;;;18.00;99.90;;;;;;5035857;28;20044;-83
2022/10/29 05:46:41;;;;;;;27.05;8.18;;;18.10;99.90;;;;;;5035742;28;20110;-83
2022/10/29 05:49:07;;;;;;;28.50;8.77;;;18.20;99.90;;;;;;5035467;28;20026;-84
2022/10/29 05:51:34;;;;;;;28.98;9.27;;;18.20;99.90;;;;;;5034459;28;20037;-84
2022/10/29 05:54:00;;;;;;;37.95;9.30;;;18.20;99.90;;;;;;5016929;28;20049;-82
2022/10/29 05:56:26;;;;;;;26.15;9.38;;;18.20;99.90;;;;;;5017018;28;20496;-81
2022/10/29 05:58:52;;;;;;;27.73;8.55;;;18.20;99.90;;;;;;5034483;28;20033;-81
2022/10/29 06:01:19;;;;;;;28.17;8.60;;;18.30;99.90;;;;;;5035009;28;20136;-81
2022/10/29 06:03:45;;;;;;;26.00;9.38;;;18.30;99.90;;;;;;5017194;28;20049;-84
2022/10/29 06:06:11;;;;;;;23.92;8.63;;;18.30;99.90;;;;;;5035403;28;20091;-83
2022/10/29 06:08:37;;;;;;;26.40;9.02;;;18.30;99.90;;;;;;5034672;28;20025;-82
2022/10/29 06:11:05;;;;;;;27.77;8.15;;;18.20;99.90;;;;;;5035013;28;20029;-81
2022/10/29 06:13:32;;;;;;;30.08;7.68;;;18.20;99.90;;;;;;5034746;28;20033;-79
2022/10/29 06:15:58;;;;;;;;;;;18.10;99.90;;;;;;5017382;28;20026;-78
2022/10/29 06:18:26;;;;;;;27.75;9.25;;;18.00;99.90;;;;;;5035188;28;19905;-79
2022/10/29 06:20:56;;;;;;;23.80;9.05;;;18.10;99.90;;;;;;5033417;28;20029;-79
2022/10/29 06:23:22;;;;;;;27.13;8.90;;;18.10;99.90;;;;;;5021257;28;20033;-79
2022/10/29 06:25:49;;;;;;;33.30;9.77;;;18.10;99.90;;;;;;5011634;28;20151;-79
2022/10/29 06:28:18;;;;;;;27.33;9.43;;;18.20;99.90;;;;;;5025484;28;20523;-79
2022/10/29 06:30:52;;;;;;;34.47;9.32;;;18.30;99.90;;;;;;5028103;28;20045;-78
2022/10/29 06:33:19;;;;;;;32.00;8.18;;;18.50;99.90;;;;;;5023453;28;20033;-76
2022/10/29 06:35:47;;;;;;;33.88;8.88;;;18.80;99.90;;;;;;5014834;28;20552;-78
2022/10/29 06:38:14;;;;;;;21.88;8.07;;;19.30;99.90;;;;;;4997344;28;20054;-78
2022/10/29 06:40:54;;;;;;;29.30;8.55;;;19.70;99.90;;;;;;5014798;28;20414;-79
2022/10/29 06:43:20;;;;;;;24.40;8.13;;;20.30;99.90;;;;;;4996753;28;20056;-78
2022/10/29 06:45:48;;;;;;;22.05;7.07;;;21.00;99.90;;;;;;5014822;28;20026;-79
2022/10/29 06:48:15;;;;;;;27.70;7.78;;;21.30;99.90;;;;;;5013406;28;20083;-79
2022/10/29 06:50:41;;;;;;;33.00;7.93;;;21.20;99.90;;;;;;5014312;28;20034;-79
2022/10/29 06:53:11;;;;;;;26.27;7.30;;;21.40;99.90;;;;;;5014308;28;20474;-78
2022/10/29 06:55:37;;;;;;;23.13;6.82;;;21.50;99.90;;;;;;4996183;28;20034;-80
2022/10/29 06:58:06;;;;;;;21.77;7.22;;;21.80;99.90;;;;;;5013572;28;20029;-79
2022/10/29 07:00:44;;;;;;;27.70;6.90;;;22.00;99.90;;;;;;5014166;28;20085;-79
2022/10/29 07:03:13;;;;;;;28.88;7.40;;;22.80;99.90;;;;;;5014671;28;20030;-78
2022/10/29 07:05:40;;;;;;;24.48;7.00;;;23.10;99.90;;;;;;4997194;28;20496;-79
2022/10/29 07:08:06;;;;;;;22.00;6.82;;;23.40;99.90;;;;;;5014034;28;20036;-79
2022/10/29 07:10:33;;;;;;;25.60;7.15;;;23.30;99.90;;;;;;5014466;28;20141;-79
2022/10/29 07:13:00;;;;;;;28.10;6.78;;;22.80;99.90;;;;;;4997256;28;20025;-78
2022/10/29 07:15:27;;;;;;;28.95;7.80;;;22.40;99.90;;;;;;5014739;28;20034;-78
2022/10/29 07:18:04;;;;;;;23.80;7.28;;;22.20;99.90;;;;;;4996289;28;20432;-78
2022/10/29 07:20:37;;;;;;;25.13;7.72;;;22.10;99.90;;;;;;5014238;28;20030;-78
2022/10/29 07:23:05;;;;;;;24.05;7.85;;;22.00;99.90;;;;;;5013875;28;20057;-78
2022/10/29 07:25:34;;;;;;;25.50;8.13;;;21.60;99.90;;;;;;5014088;28;20029;-79
2022/10/29 07:28:12;;;;;;;28.35;7.88;;;21.50;99.90;;;;;;5014266;28;20527;-79
2022/10/29 07:30:39;;;;;;;32.38;8.38;;;21.20;99.90;;;;;;4996154;28;20038;-79
2022/10/29 07:33:05;;;;;;;39.38;8.77;;;21.10;99.90;;;;;;5014248;28;20022;-78
2022/10/29 07:35:32;;;;;;;;;;;21.20;99.90;;;;;;5014048;28;20034;-79
2022/10/29 07:38:05;;;;;;;27.55;7.90;;;21.40;99.90;;;;;;5013759;28;19905;-80
2022/10/29 07:40:48;;;;;;;23.55;7.10;;;21.60;99.90;;;;;;5006701;28;20030;-80
2022/10/29 07:43:15;;;;;;;25.85;7.07;;;21.90;99.90;;;;;;5013447;28;20110;-80
2022/10/29 07:45:43;;;;;;;26.88;7.78;;;22.10;99.90;;;;;;4994554;28;20064;-80
2022/10/29 07:48:10;;;;;;;27.35;7.53;;;22.20;99.90;;;;;;5013350;28;20033;-79
2022/10/29 07:50:37;;;;;;;29.70;7.60;;;22.40;99.90;;;;;;5012882;28;20045;-79
2022/10/29 07:53:05;;;;;;;25.77;7.22;;;22.60;99.90;;;;;;5012628;28;20196;-81
2022/10/29 07:55:32;;;;;;;22.70;7.25;;;22.60;99.90;;;;;;5013245;28;20173;-81
2022/10/29 07:58:02;;;;;;;27.48;7.07;;;22.80;99.90;;;;;;5013942;28;20115;-79
2022/10/29 08:00:29;;;;;;;31.13;7.43;;;23.20;99.90;;;;;;5012630;28;20481;-80
2022/10/29 08:02:57;;;;;;;29.67;7.72;;;23.20;99.90;;;;;;5012588;28;20053;-80
2022/10/29 08:05:24;;;;;;;26.13;7.63;;;23.40;99.90;;;;;;5012969;28;20021;-79
2022/10/29 08:07:53;;;;;;;23.08;6.90;;;23.20;99.90;;;;;;5012986;28;20026;-80
2022/10/29 08:10:20;;;;;;;27.55;7.32;;;23.00;99.90;;;;;;5012828;28;20032;-79
2022/10/29 08:12:53;;;;;;;23.77;6.70;;;23.00;99.90;;;;;;5012605;28;20034;-80
2022/10/29 08:15:19;;;;;;;24.23;6.80;;;22.90;99.90;;;;;;4995148;28;20064;-80
2022/10/29 08:17:46;;;;;;;29.33;7.70;;;22.90;99.90;;;;;;5013256;28;20528;-83
2022/10/29 08:20:46;;;;;;;25.05;6.40;;;22.80;99.90;;;;;;5013345;28;20026;-82
2022/10/29 08:23:13;;;;;;;24.75;6.70;;;23.00;99.90;;;;;;5013240;28;20078;-81
2022/10/29 08:25:41;;;;;;;31.10;6.28;;;23.20;99.90;;;;;;5013542;28;20030;-82
2022/10/29 08:28:44;;;;;;;25.02;6.75;;;23.40;99.90;;;;;;4996228;28;20113;-82
2022/10/29 08:31:10;;;;;;;30.05;7.07;;;23.60;99.90;;;;;;5013093;28;20073;-83
2022/10/29 08:33:36;;;;;;;25.38;6.57;;;23.80;99.90;;;;;;4995547;28;20037;-82
2022/10/29 08:36:02;;;;;;;25.88;6.63;;;23.90;99.90;;;;;;4995498;28;20505;-83
2022/10/29 08:38:29;;;;;;;28.58;7.10;;;23.90;99.90;;;;;;5013640;28;20037;-83
2022/10/29 08:41:10;;;;;;;27.00;6.85;;;24.00;99.90;;;;;;5013260;28;20022;-84
2022/10/29 08:44:02;;;;;;;24.00;6.38;;;24.30;99.90;;;;;;5013553;28;20033;-83
2022/10/29 08:47:08;;;;;;;26.33;6.68;;;24.70;99.90;;;;;;5013058;28;20525;-82
2022/10/29 08:49:57;;;;;;;19.95;6.22;;;25.00;99.90;;;;;;4952110;29;20094;-82
2022/10/29 08:52:28;;;;;;;26.02;5.90;;;25.00;99.90;;;;;;4952692;29;20184;-82
2022/10/29 08:55:06;;;;;;;30.42;7.05;;;24.90;99.90;;;;;;4952779;29;20047;-84
2022/10/29 08:57:42;;;;;;;31.63;6.43;;;25.10;99.90;;;;;;4952164;29;20074;-82
2022/10/29 09:00:30;;;;;;;29.40;6.70;;;25.30;99.90;;;;;;4951671;29;20074;-83
2022/10/29 09:02:59;;;;;;;26.25;6.20;;;25.60;99.90;;;;;;4952101;29;20457;-84
2022/10/29 09:05:39;;;;;;;27.95;6.53;;;25.70;99.90;;;;;;4952268;29;20050;-82
2022/10/29 09:08:29;;;;;;;22.08;6.28;;;25.70;99.90;;;;;;4952650;29;20039;-77
2022/10/29 09:10:58;;;;;;;24.08;6.45;;;25.30;99.90;;;;;;4952362;28;20043;-76
2022/10/29 09:13:57;;;;;;;23.25;6.00;;;25.10;99.90;;;;;;4955881;29;20102;-80
2022/10/29 09:16:42;;;;;;;25.73;6.15;;;25.00;99.90;;;;;;4956494;29;20035;-82
2022/10/29 09:19:17;;;;;;;26.63;6.28;;;24.90;99.90;;;;;;4956437;29;20038;-83
2022/10/29 09:22:10;;;;;;;21.70;7.00;;;24.80;99.90;;;;;;4955888;29;20111;-78
2022/10/29 09:24:36;;;;;;;24.95;7.28;;;24.90;99.90;;;;;;4956076;29;20170;-86
2022/10/29 09:27:37;;;;;;;29.95;7.05;;;24.90;99.90;;;;;;4995866;28;20030;-82
2022/10/29 09:30:19;;;;;;;21.35;7.15;;;24.80;99.90;;;;;;5016008;28;20490;-82
2022/10/29 09:33:09;;;;;;;24.27;6.22;;;24.80;99.90;;;;;;5016032;28;20037;-82
2022/10/29 09:35:54;;;;;;;28.20;7.13;;;25.00;99.90;;;;;;5016935;28;20088;-84
2022/10/29 09:38:29;;;;;;;21.33;6.70;;;25.10;99.90;;;;;;5017325;28;20462;-82
2022/10/29 09:41:03;;;;;;;22.48;6.18;;;25.10;99.90;;;;;;5017062;28;20425;-82
2022/10/29 09:44:04;;;;;;;26.77;6.38;;;25.00;99.90;;;;;;5016591;28;20049;-82
2022/10/29 09:46:52;;;;;;;27.38;6.40;;;25.00;99.90;;;;;;4956073;29;20040;-82
2022/10/29 09:49:38;;;;;;;22.95;5.25;;;25.00;99.90;;;;;;4955799;29;20114;-78
2022/10/29 09:52:12;;;;;;;23.10;5.70;;;25.20;99.90;;;;;;4955669;29;20055;-75
2022/10/29 09:54:38;;;;;;;19.25;5.63;;;25.60;99.90;;;;;;4955658;29;20035;-76
2022/10/29 09:57:08;;;;;;;26.17;5.95;;;25.90;99.90;;;;;;4955997;29;20035;-76
2022/10/29 09:59:40;;;;;;;26.23;5.57;;;26.20;99.90;;;;;;4955445;29;20035;-77
2022/10/29 10:02:32;;;;;;;25.33;5.72;;;26.40;99.90;;;;;;4955590;29;20033;-76
2022/10/29 10:05:06;;;;;;;22.52;5.88;;;26.50;99.90;;;;;;4961647;29;20109;-77
2022/10/29 10:07:33;;;;;;;27.50;5.82;;;26.50;99.90;;;;;;4955257;29;20109;-80
2022/10/29 10:10:01;;;;;;;22.50;5.32;;;26.50;99.90;;;;;;4954865;29;20043;-79
2022/10/29 10:12:48;;;;;;;27.52;5.60;;;26.70;99.90;;;;;;4955009;29;20515;-79
2022/10/29 10:15:33;;;;;;;18.05;5.47;;;26.80;99.90;;;;;;4977120;23;20096;-80
2022/10/29 10:18:48;;;;;;;19.23;5.40;;;27.00;99.90;;;;;;4996587;28;20170;-80
2022/10/29 10:21:25;;;;;;;23.20;5.72;;;27.00;99.90;;;;;;4995215;28;20026;-79
2022/10/29 10:23:59;;;;;;;23.15;5.30;;;27.10;99.90;;;;;;4994959;28;20027;-79
2022/10/29 10:26:27;;;;;;;16.65;4.97;;;27.00;99.90;;;;;;4995074;28;20371;-76
2022/10/29 10:29:03;;;;;;;23.92;6.35;;;26.90;99.90;;;;;;4994895;28;20034;-74
2022/10/29 10:31:29;;;;;;;22.92;5.55;;;27.10;99.90;;;;;;4995471;28;20042;-77
2022/10/29 10:33:55;;;;;;;25.90;5.72;;;26.90;99.90;;;;;;4994003;28;20096;-76
2022/10/29 10:36:23;;;;;;;;;;;26.80;99.90;;;;;;4995849;28;20037;-76
2022/10/29 10:38:52;;;;;;;18.15;5.45;;;27.00;99.90;;;;;;4993554;28;20024;-77
2022/10/29 10:41:41;;;;;;;21.20;5.30;;;27.00;99.90;;;;;;4993452;28;20022;-77
2022/10/29 10:44:13;;;;;;;17.30;5.28;;;26.90;99.90;;;;;;4993441;28;20022;-78
2022/10/29 10:46:43;;;;;;;20.55;5.07;;;26.80;99.90;;;;;;4994055;28;20164;-77
2022/10/29 10:49:17;;;;;;;28.27;5.72;;;26.50;99.90;;;;;;4993508;28;20128;-77
2022/10/29 10:51:51;;;;;;;18.10;6.25;;;26.60;99.90;;;;;;4993808;28;20161;-76
2022/10/29 10:54:26;;;;;;;23.38;5.63;;;26.70;99.90;;;;;;4993739;28;20026;-78
2022/10/29 10:57:21;;;;;;;19.33;5.90;;;26.60;99.90;;;;;;4993261;28;20041;-77
2022/10/29 11:00:09;;;;;;;19.23;6.43;;;26.50;99.90;;;;;;4968930;28;20398;-76
2022/10/29 11:02:41;;;;;;;17.88;5.40;;;26.30;99.90;;;;;;4993908;28;20023;-76
2022/10/29 11:05:28;;;;;;;19.67;5.72;;;26.00;99.90;;;;;;4993834;28;20355;-76
2022/10/29 11:08:15;;;;;;;16.95;5.43;;;26.00;99.90;;;;;;4994422;28;20026;-76
2022/10/29 11:11:10;;;;;;;18.48;5.97;;;26.10;99.90;;;;;;4994428;28;20041;-77
2022/10/29 11:13:39;;;;;;;20.53;6.10;;;25.90;99.90;;;;;;4988679;28;20035;-77
2022/10/29 11:16:37;;;;;;;27.77;6.88;;;26.00;99.90;;;;;;4993119;28;20312;-77
2022/10/29 11:19:31;;;;;;;19.70;5.65;;;25.90;99.90;;;;;;4981903;28;20042;-76
2022/10/29 11:22:19;;;;;;;18.70;5.15;;;26.00;99.90;;;;;;4994257;28;20038;-77
2022/10/29 11:25:02;;;;;;;18.90;5.43;;;26.20;99.90;;;;;;4984559;28;20034;-77
2022/10/29 11:27:55;;;;;;;18.25;5.45;;;26.40;99.90;;;;;;4993817;28;20069;-77
2022/10/29 11:30:22;;;;;;;18.58;5.35;;;26.40;99.90;;;;;;4992212;28;20402;-77
2022/10/29 11:33:13;;;;;;;22.40;4.60;;;26.50;99.90;;;;;;4994279;28;20030;-76
2022/10/29 11:35:48;;;;;;;20.95;5.20;;;26.60;99.90;;;;;;4992722;28;20042;-76
2022/10/29 11:38:35;;;;;;;18.88;5.20;;;26.80;99.90;;;;;;4994354;28;20133;-77
2022/10/29 11:41:35;;;;;;;18.92;4.65;;;26.50;99.90;;;;;;5005077;28;20506;-75
2022/10/29 11:44:02;;;;;;;20.85;5.05;;;26.50;99.90;;;;;;4993396;28;20442;-76
2022/10/29 11:46:32;;;;;;;14.82;4.40;;;26.50;99.90;;;;;;4993818;28;20093;-76
2022/10/29 11:49:23;;;;;;;19.77;4.95;;;26.50;99.90;;;;;;4993845;28;20050;-76
2022/10/29 11:52:11;;;;;;;17.92;4.78;;;26.40;99.90;;;;;;4992722;28;20110;-77
2022/10/29 11:54:44;;;;;;;17.73;5.03;;;26.30;99.90;;;;;;4991662;28;20459;-77
2022/10/29 11:57:40;;;;;;;17.88;5.47;;;26.10;99.90;;;;;;4993498;28;20037;-79
2022/10/29 12:00:31;;;;;;;18.55;5.00;;;26.20;99.90;;;;;;4993737;28;20032;-79
2022/10/29 12:03:24;;;;;;;17.58;4.65;;;26.20;99.90;;;;;;4990581;28;20419;-80
2022/10/29 12:06:14;;;;;;;18.73;5.20;;;26.30;99.90;;;;;;4997825;28;20038;-79
2022/10/29 12:09:11;;;;;;;20.10;4.90;;;26.10;99.90;;;;;;5013186;28;20056;-78
2022/10/29 12:11:44;;;;;;;21.83;5.05;;;26.10;99.90;;;;;;5000395;28;20045;-78
2022/10/29 12:17:33;;;;;;;17.80;4.88;;;25.90;99.90;;;;;;5110853;27;20127;-78
2022/10/29 12:20:37;;;;;;;23.92;5.30;;;25.70;99.90;;;;;;5111480;28;20075;-80
2022/10/29 12:23:30;;;;;;;18.45;4.95;;;25.70;99.90;;;;;;5110289;28;20083;-79
2022/10/29 12:26:35;;;;;;;17.27;5.25;;;25.80;99.90;;;;;;5110564;28;20043;-79
2022/10/29 12:29:20;;;;;;;20.02;5.10;;;25.90;99.90;;;;;;5110784;28;20111;-80
2022/10/29 12:32:08;;;;;;;13.77;4.50;;;25.90;99.90;;;;;;5109481;28;20123;-78
2022/10/29 12:34:47;;;;;;;16.70;5.15;;;25.70;99.90;;;;;;5110590;28;20089;-79
2022/10/29 12:37:38;;;;;;;14.88;4.85;;;25.70;99.90;;;;;;5110818;28;20040;-78
2022/10/29 12:40:24;;;;;;;15.88;4.38;;;25.60;99.90;;;;;;5110764;28;20034;-78
2022/10/29 12:42:54;;;;;;;23.17;5.20;;;25.70;99.90;;;;;;5110440;28;20028;-79
2022/10/29 12:45:23;;;;;;;18.55;5.00;;;25.80;99.90;;;;;;5110622;28;20498;-79
2022/10/29 12:48:08;;;;;;;14.88;4.55;;;25.70;99.90;;;;;;5110628;28;20414;-79
2022/10/29 12:50:46;;;;;;;17.92;5.20;;;25.70;99.90;;;;;;5110032;28;20044;-77
2022/10/29 12:53:34;;;;;;;17.02;4.80;;;25.80;99.90;;;;;;5110549;28;20376;-76
2022/10/29 12:56:02;;;;;;;19.48;5.45;;;25.70;99.90;;;;;;5109827;28;20047;-77
2022/10/29 12:58:49;;;;;;;14.77;4.53;;;25.70;99.90;;;;;;5108470;28;20473;-77
2022/10/29 13:01:34;;;;;;;15.40;4.70;;;25.70;99.90;;;;;;5110301;28;20039;-74
2022/10/29 13:04:03;;;;;;;18.55;4.68;;;25.70;99.90;;;;;;5110170;28;20049;-78
2022/10/29 13:07:02;;;;;;;16.02;4.78;;;25.60;99.90;;;;;;5110562;28;20103;-79
2022/10/29 13:09:36;;;;;;;17.48;4.88;;;25.70;99.90;;;;;;5102425;28;20074;-80
2022/10/29 13:12:12;;;;;;;14.25;4.38;;;25.70;99.90;;;;;;5110147;28;20028;-80